createdAt,value
2016-10-13T00:01:08.380Z,20.25
2016-10-13T00:02:21.360Z,20.23
2016-10-13T00:03:34.887Z,20.19
2016-10-13T00:04:48.456Z,20.18
2016-10-13T00:06:00.925Z,20.29
2016-10-13T00:07:14.475Z,20.25
2016-10-13T00:08:28.091Z,20.19
2016-10-13T00:09:40.695Z,20.18
2016-10-13T00:10:52.715Z,20.25
2016-10-13T00:12:06.252Z,20.17
2016-10-13T00:13:19.334Z,20.19
2016-10-13T00:14:32.359Z,20.19
2016-10-13T00:15:45.388Z,20.23
2016-10-13T00:16:58.404Z,20.27
2016-10-13T00:18:10.438Z,20.22
2016-10-13T00:19:23.505Z,20.27
2016-10-13T00:20:36.519Z,20.19
2016-10-13T00:21:49.019Z,20.25
2016-10-13T00:23:02.624Z,20.23
2016-10-13T00:24:16.218Z,20.23
2016-10-13T00:25:29.719Z,20.25
2016-10-13T00:26:42.918Z,20.19
2016-10-13T00:27:56.439Z,20.19
2016-10-13T00:29:09.485Z,20.25
2016-10-13T00:30:22.528Z,20.25
2016-10-13T00:31:35.561Z,20.3
2016-10-13T00:32:49.247Z,20.3
2016-10-13T00:34:02.290Z,20.3
2016-10-13T00:35:15.878Z,20.32
2016-10-13T00:36:29.452Z,20.3
2016-10-13T00:37:42.536Z,20.26
2016-10-13T00:38:56.156Z,20.33
2016-10-13T00:40:09.159Z,20.34
2016-10-13T00:41:22.767Z,20.29
2016-10-13T00:42:36.363Z,20.34
2016-10-13T00:43:49.454Z,20.46
2016-10-13T00:45:02.024Z,20.44
2016-10-13T00:46:15.565Z,20.39
2016-10-13T00:47:29.263Z,20.37
2016-10-13T00:48:42.359Z,20.32
2016-10-13T00:49:54.892Z,20.41
2016-10-13T00:51:07.878Z,20.5
2016-10-13T00:52:21.449Z,20.48
2016-10-13T00:53:35.071Z,20.46
2016-10-13T00:54:48.187Z,20.46
2016-10-13T00:56:01.315Z,20.46
2016-10-13T00:57:14.978Z,20.46
2016-10-13T00:58:28.550Z,20.52
2016-10-13T00:59:41.509Z,20.5
2016-10-13T01:00:54.610Z,20.44
2016-10-13T01:02:07.747Z,20.52
2016-10-13T01:03:21.428Z,20.52
2016-10-13T01:04:35.153Z,20.5
2016-10-13T01:05:47.720Z,20.52
2016-10-13T01:07:00.765Z,20.52
2016-10-13T01:08:13.756Z,20.49
2016-10-13T01:09:27.218Z,20.49
2016-10-13T01:10:40.318Z,20.49
2016-10-13T01:11:53.336Z,20.48
2016-10-13T01:13:06.919Z,20.49
2016-10-13T01:14:20.014Z,20.52
2016-10-13T01:15:32.961Z,20.52
2016-10-13T01:16:45.968Z,20.5
2016-10-13T01:17:58.969Z,20.49
2016-10-13T01:19:12.419Z,20.5
2016-10-13T01:20:24.855Z,20.49
2016-10-13T01:21:38.345Z,20.49
2016-10-13T01:22:52.004Z,20.5
2016-10-13T01:24:05.480Z,20.5
2016-10-13T01:25:19.031Z,20.5
2016-10-13T01:26:32.570Z,20.49
2016-10-13T01:27:45.179Z,20.52
2016-10-13T01:29:01.322Z,20.49
2016-10-13T01:30:14.327Z,20.49
2016-10-13T01:31:26.831Z,20.48
2016-10-13T01:32:40.398Z,20.52
2016-10-13T01:33:53.359Z,20.49
2016-10-13T01:35:06.986Z,20.48
2016-10-13T01:36:20.645Z,20.52
2016-10-13T01:37:34.166Z,20.5
2016-10-13T01:38:47.365Z,20.5
2016-10-13T01:40:00.433Z,20.34
2016-10-13T01:41:13.962Z,20.49
2016-10-13T01:42:27.560Z,20.39
2016-10-13T01:43:40.608Z,20.48
2016-10-13T01:44:54.157Z,20.46
2016-10-13T01:46:07.678Z,20.44
2016-10-13T01:47:19.682Z,20.36
2016-10-13T01:48:32.724Z,20.34
2016-10-13T01:49:44.965Z,20.36
2016-10-13T01:50:57.950Z,20.34
2016-10-13T01:52:11.130Z,20.39
2016-10-13T01:53:24.216Z,20.36
2016-10-13T01:54:36.801Z,20.37
2016-10-13T01:55:49.298Z,20.44
2016-10-13T01:57:02.811Z,20.41
2016-10-13T01:58:15.851Z,20.39
2016-10-13T01:59:29.485Z,20.41
2016-10-13T02:00:43.065Z,20.32
2016-10-13T02:01:56.134Z,20.46
2016-10-13T02:03:09.120Z,20.3
2016-10-13T02:04:22.737Z,20.33
2016-10-13T02:05:35.883Z,20.36
2016-10-13T02:06:48.884Z,20.33
2016-10-13T02:08:01.911Z,20.36
2016-10-13T02:09:14.955Z,20.39
2016-10-13T02:10:28.028Z,20.29
2016-10-13T02:11:40.046Z,20.34
2016-10-13T02:12:53.613Z,20.32
2016-10-13T02:14:07.109Z,20.33
2016-10-13T02:15:20.913Z,20.3
2016-10-13T02:16:33.391Z,20.27
2016-10-13T02:17:46.949Z,20.33
2016-10-13T02:19:00.451Z,20.36
2016-10-13T02:20:13.480Z,20.34
2016-10-13T02:21:26.980Z,20.3
2016-10-13T02:22:40.552Z,20.32
2016-10-13T02:23:53.551Z,20.33
2016-10-13T02:25:06.557Z,20.34
2016-10-13T02:26:20.155Z,20.33
2016-10-13T02:27:33.664Z,20.34
2016-10-13T02:28:46.190Z,20.32
2016-10-13T02:29:59.139Z,20.36
2016-10-13T02:31:12.654Z,20.46
2016-10-13T02:32:26.164Z,20.33
2016-10-13T02:33:39.222Z,20.39
2016-10-13T02:34:52.776Z,20.37
2016-10-13T02:36:06.289Z,20.48
2016-10-13T02:37:19.318Z,20.49
2016-10-13T02:38:32.410Z,20.49
2016-10-13T02:39:44.975Z,20.44
2016-10-13T02:40:58.041Z,20.48
2016-10-13T02:42:11.038Z,20.48
2016-10-13T02:43:24.073Z,20.48
2016-10-13T02:44:37.625Z,20.48
2016-10-13T02:45:50.110Z,20.55
2016-10-13T02:47:03.675Z,20.46
2016-10-13T02:48:17.228Z,20.49
2016-10-13T02:49:30.292Z,20.52
2016-10-13T02:50:43.820Z,20.55
2016-10-13T02:51:56.839Z,20.56
2016-10-13T02:53:09.871Z,20.56
2016-10-13T02:54:22.985Z,20.56
2016-10-13T02:55:36.498Z,20.65
2016-10-13T02:56:49.639Z,20.68
2016-10-13T02:58:02.641Z,20.58
2016-10-13T02:59:16.202Z,20.64
2016-10-13T03:00:29.774Z,20.67
2016-10-13T03:01:43.406Z,20.68
2016-10-13T03:02:56.471Z,20.58
2016-10-13T03:04:08.943Z,20.64
2016-10-13T03:05:22.497Z,20.55
2016-10-13T03:06:36.086Z,20.52
2016-10-13T03:07:48.661Z,20.52
2016-10-13T03:09:01.145Z,20.49
2016-10-13T03:10:13.699Z,20.46
2016-10-13T03:11:25.642Z,20.39
2016-10-13T03:12:38.696Z,20.3
2016-10-13T03:13:52.327Z,20.18
2016-10-13T03:15:05.362Z,20.14
2016-10-13T03:16:18.432Z,20.14
2016-10-13T03:17:31.462Z,20.08
2016-10-13T03:18:44.474Z,20.09
2016-10-13T03:19:57.513Z,20.04
2016-10-13T03:21:10.530Z,19.96
2016-10-13T03:22:24.112Z,19.87
2016-10-13T03:23:37.129Z,19.84
2016-10-13T03:24:50.685Z,19.86
2016-10-13T03:26:03.219Z,19.64
2016-10-13T03:27:16.815Z,19.74
2016-10-13T03:28:29.821Z,19.75
2016-10-13T03:29:42.839Z,19.77
2016-10-13T03:30:56.426Z,19.67
2016-10-13T03:32:09.435Z,19.72
2016-10-13T03:33:22.920Z,19.63
2016-10-13T03:34:35.907Z,19.7
2016-10-13T03:35:48.954Z,19.68
2016-10-13T03:37:02.613Z,19.77
2016-10-13T03:38:15.665Z,19.72
2016-10-13T03:39:29.204Z,19.7
2016-10-13T03:40:42.808Z,19.79
2016-10-13T03:41:56.459Z,19.78
2016-10-13T03:43:10.027Z,19.78
2016-10-13T03:44:23.021Z,19.74
2016-10-13T03:45:36.564Z,19.77
2016-10-13T03:46:49.627Z,19.67
2016-10-13T03:48:02.636Z,19.77
2016-10-13T03:49:15.612Z,19.68
2016-10-13T03:50:28.926Z,19.77
2016-10-13T03:51:41.464Z,19.7
2016-10-13T03:52:55.044Z,19.7
2016-10-13T03:54:08.137Z,19.68
2016-10-13T03:55:21.186Z,19.63
2016-10-13T03:56:34.194Z,19.71
2016-10-13T03:57:47.275Z,19.7
2016-10-13T03:59:00.925Z,19.64
2016-10-13T04:00:13.398Z,19.57
2016-10-13T04:01:26.436Z,19.64
2016-10-13T04:02:39.469Z,19.71
2016-10-13T04:03:53.087Z,19.77
2016-10-13T04:05:06.646Z,19.68
2016-10-13T04:06:20.268Z,19.7
2016-10-13T04:07:33.846Z,19.62
2016-10-13T04:08:46.875Z,19.77
2016-10-13T04:09:59.325Z,19.67
2016-10-13T04:11:12.895Z,19.64
2016-10-13T04:12:26.491Z,19.62
2016-10-13T04:13:39.739Z,19.68
2016-10-13T04:14:53.362Z,19.7
2016-10-13T04:16:06.455Z,19.75
2016-10-13T04:17:20.023Z,19.75
2016-10-13T04:18:33.680Z,19.75
2016-10-13T04:19:46.739Z,19.78
2016-10-13T04:21:00.280Z,19.81
2016-10-13T04:22:13.836Z,19.78
2016-10-13T04:23:27.402Z,19.71
2016-10-13T04:24:40.981Z,19.79
2016-10-13T04:25:53.973Z,19.79
2016-10-13T04:27:07.076Z,19.79
2016-10-13T04:28:19.587Z,19.82
2016-10-13T04:29:32.570Z,19.77
2016-10-13T04:30:45.636Z,19.79
2016-10-13T04:31:57.650Z,19.72
2016-10-13T04:33:11.245Z,19.68
2016-10-13T04:34:24.869Z,19.7
2016-10-13T04:35:38.390Z,19.77
2016-10-13T04:36:51.420Z,19.82
2016-10-13T04:38:03.423Z,19.81
2016-10-13T04:39:17.026Z,19.78
2016-10-13T04:40:29.991Z,19.77
2016-10-13T04:41:42.558Z,19.82
2016-10-13T04:42:55.616Z,19.79
2016-10-13T04:44:08.624Z,19.77
2016-10-13T04:45:21.649Z,19.84
2016-10-13T04:46:34.131Z,19.81
2016-10-13T04:47:47.252Z,19.77
2016-10-13T04:49:00.879Z,19.82
2016-10-13T04:50:14.453Z,19.84
2016-10-13T04:51:26.972Z,19.89
2016-10-13T04:52:40.535Z,19.87
2016-10-13T04:53:54.046Z,19.84
2016-10-13T04:55:06.542Z,19.79
2016-10-13T04:56:19.550Z,19.77
2016-10-13T04:57:32.568Z,19.75
2016-10-13T04:58:46.153Z,19.78
2016-10-13T04:59:59.149Z,19.79
2016-10-13T05:01:11.781Z,19.89
2016-10-13T05:02:24.347Z,19.84
2016-10-13T05:03:36.824Z,19.86
2016-10-13T05:04:49.356Z,19.84
2016-10-13T05:06:02.398Z,19.81
2016-10-13T05:07:15.479Z,19.87
2016-10-13T05:08:29.094Z,19.9
2016-10-13T05:09:41.554Z,19.86
2016-10-13T05:10:54.661Z,19.89
2016-10-13T05:12:07.663Z,19.89
2016-10-13T05:13:21.200Z,19.89
2016-10-13T05:14:34.778Z,19.86
2016-10-13T05:15:47.780Z,19.84
2016-10-13T05:17:00.721Z,19.81
2016-10-13T05:18:14.323Z,19.86
2016-10-13T05:19:27.903Z,19.77
2016-10-13T05:20:41.469Z,19.81
2016-10-13T05:21:54.446Z,19.82
2016-10-13T05:23:07.488Z,19.77
2016-10-13T05:24:20.053Z,19.77
2016-10-13T05:25:33.117Z,19.77
2016-10-13T05:26:45.647Z,19.77
2016-10-13T05:27:59.456Z,19.72
2016-10-13T05:29:12.491Z,19.63
2016-10-13T05:30:25.543Z,19.72
2016-10-13T05:31:37.992Z,19.62
2016-10-13T05:32:50.506Z,19.72
2016-10-13T05:34:03.583Z,19.75
2016-10-13T05:35:16.641Z,19.86
2016-10-13T05:36:29.674Z,19.84
2016-10-13T05:37:43.201Z,19.84
2016-10-13T05:38:55.186Z,19.79
2016-10-13T05:40:08.250Z,19.87
2016-10-13T05:41:21.488Z,19.84
2016-10-13T05:42:33.962Z,19.82
2016-10-13T05:43:46.981Z,19.82
2016-10-13T05:45:00.605Z,19.81
2016-10-13T05:46:13.139Z,19.75
2016-10-13T05:47:25.602Z,19.81
2016-10-13T05:48:38.597Z,19.74
2016-10-13T05:49:51.107Z,19.75
2016-10-13T05:51:03.613Z,19.74
2016-10-13T05:52:16.582Z,19.86
2016-10-13T05:53:29.112Z,19.75
2016-10-13T05:54:42.186Z,19.77
2016-10-13T05:55:55.278Z,19.78
2016-10-13T05:57:07.784Z,19.74
2016-10-13T05:58:19.234Z,19.71
2016-10-13T05:59:32.783Z,19.68
2016-10-13T06:00:45.304Z,19.72
2016-10-13T06:01:58.313Z,19.71
2016-10-13T06:03:11.406Z,19.75
2016-10-13T06:04:24.458Z,19.77
2016-10-13T06:05:36.928Z,19.78
2016-10-13T06:06:48.894Z,19.78
2016-10-13T06:08:01.400Z,19.77
2016-10-13T06:09:14.509Z,19.75
2016-10-13T06:10:27.552Z,19.75
2016-10-13T06:11:40.123Z,19.77
2016-10-13T06:12:52.154Z,19.74
2016-10-13T06:14:04.140Z,19.86
2016-10-13T06:15:17.220Z,19.78
2016-10-13T06:16:30.301Z,19.84
2016-10-13T06:17:42.826Z,19.84
2016-10-13T06:18:56.507Z,19.79
2016-10-13T06:20:09.565Z,19.84
2016-10-13T06:21:23.104Z,19.78
2016-10-13T06:22:35.568Z,19.75
2016-10-13T06:23:49.138Z,19.79
2016-10-13T06:25:02.727Z,19.78
2016-10-13T06:26:15.680Z,19.71
2016-10-13T06:27:27.725Z,19.67
2016-10-13T06:28:40.246Z,19.7
2016-10-13T06:29:52.699Z,19.64
2016-10-13T06:31:05.818Z,19.75
2016-10-13T06:32:19.352Z,19.71
2016-10-13T06:33:32.432Z,19.78
2016-10-13T06:34:46.240Z,19.75
2016-10-13T06:35:58.754Z,19.78
2016-10-13T06:37:11.279Z,19.78
2016-10-13T06:38:24.306Z,19.6
2016-10-13T06:39:36.882Z,19.6
2016-10-13T06:40:50.483Z,19.6
2016-10-13T06:42:02.519Z,19.59
2016-10-13T06:43:15.545Z,19.57
2016-10-13T06:44:29.085Z,19.54
2016-10-13T06:45:42.670Z,19.53
2016-10-13T06:46:56.200Z,19.53
2016-10-13T06:48:09.787Z,19.47
2016-10-13T06:49:22.828Z,19.49
2016-10-13T06:50:35.909Z,19.47
2016-10-13T06:51:49.536Z,19.45
2016-10-13T06:53:02.543Z,19.38
2016-10-13T06:54:15.577Z,19.41
2016-10-13T06:55:28.087Z,19.39
2016-10-13T06:56:41.084Z,19.32
2016-10-13T06:57:54.597Z,19.27
2016-10-13T06:59:07.104Z,19.3
2016-10-13T07:00:20.689Z,19.26
2016-10-13T07:01:34.132Z,19.16
2016-10-13T07:02:47.632Z,19.34
2016-10-13T07:04:01.391Z,19.31
2016-10-13T07:05:14.389Z,19.3
2016-10-13T07:06:26.877Z,19.2
2016-10-13T07:07:39.874Z,19.2
2016-10-13T07:08:51.875Z,19.26
2016-10-13T07:10:05.531Z,19.3
2016-10-13T07:11:19.069Z,19.31
2016-10-13T07:12:32.593Z,19.23
2016-10-13T07:13:45.624Z,19.17
2016-10-13T07:14:58.780Z,19.12
2016-10-13T07:16:11.814Z,19.23
2016-10-13T07:17:25.049Z,19.17
2016-10-13T07:18:38.144Z,19.2
2016-10-13T07:19:51.191Z,19.04
2016-10-13T07:21:04.218Z,19.19
2016-10-13T07:22:17.301Z,19.2
2016-10-13T07:23:30.839Z,19.16
2016-10-13T07:24:43.871Z,19.05
2016-10-13T07:25:57.423Z,19.05
2016-10-13T07:27:09.394Z,19.08
2016-10-13T07:28:22.959Z,19.08
2016-10-13T07:29:35.521Z,19.08
2016-10-13T07:30:48.021Z,19
2016-10-13T07:32:01.593Z,19.07
2016-10-13T07:33:15.218Z,18.94
2016-10-13T07:34:28.257Z,18.89
2016-10-13T07:35:41.338Z,18.91
2016-10-13T07:36:54.468Z,19.05
2016-10-13T07:38:08.025Z,19.04
2016-10-13T07:39:21.565Z,19.04
2016-10-13T07:40:35.108Z,19.04
2016-10-13T07:41:47.688Z,18.97
2016-10-13T07:43:00.416Z,18.98
2016-10-13T07:44:12.961Z,19.05
2016-10-13T07:45:26.030Z,18.94
2016-10-13T07:46:39.004Z,19
2016-10-13T07:47:51.539Z,18.86
2016-10-13T07:49:05.047Z,19.04
2016-10-13T07:50:18.527Z,18.96
2016-10-13T07:51:31.533Z,18.96
2016-10-13T07:52:44.549Z,18.93
2016-10-13T07:53:57.629Z,19
2016-10-13T07:55:11.169Z,18.94
2016-10-13T07:56:24.163Z,18.91
2016-10-13T07:57:37.125Z,19.01
2016-10-13T07:58:49.652Z,19.04
2016-10-13T08:00:01.708Z,19.04
2016-10-13T08:01:14.174Z,18.94
2016-10-13T08:02:27.720Z,18.93
2016-10-13T08:03:41.291Z,18.94
2016-10-13T08:04:54.842Z,18.98
2016-10-13T08:06:07.927Z,18.97
2016-10-13T08:07:19.945Z,19.04
2016-10-13T08:08:31.923Z,18.97
2016-10-13T08:09:43.892Z,19
2016-10-13T08:10:56.890Z,18.98
2016-10-13T08:12:10.444Z,19.01
2016-10-13T08:13:23.025Z,19
2016-10-13T08:14:36.076Z,18.97
2016-10-13T08:15:48.628Z,19.05
2016-10-13T08:17:01.638Z,19.05
2016-10-13T08:18:15.158Z,18.97
2016-10-13T08:19:28.252Z,19
2016-10-13T08:20:40.761Z,19.01
2016-10-13T08:21:53.828Z,18.98
2016-10-13T08:23:07.462Z,19.09
2016-10-13T08:24:20.452Z,18.97
2016-10-13T08:25:33.975Z,18.97
2016-10-13T08:26:46.982Z,18.94
2016-10-13T08:28:00.020Z,19.08
2016-10-13T08:29:13.582Z,19.08
2016-10-13T08:30:27.159Z,19.08
2016-10-13T08:31:40.233Z,19.12
2016-10-13T08:32:53.297Z,19.13
2016-10-13T08:34:06.360Z,19.15
2016-10-13T08:35:18.902Z,19.08
2016-10-13T08:36:32.488Z,19.05
2016-10-13T08:37:46.004Z,19.01
2016-10-13T08:38:59.499Z,19.07
2016-10-13T08:40:11.475Z,19.13
2016-10-13T08:41:24.542Z,19.07
2016-10-13T08:42:37.541Z,19.16
2016-10-13T08:43:51.058Z,19.09
2016-10-13T08:45:04.163Z,19.19
2016-10-13T08:46:17.158Z,19.23
2016-10-13T08:47:30.761Z,19.24
2016-10-13T08:48:43.825Z,19.22
2016-10-13T08:49:57.379Z,19.2
2016-10-13T08:51:10.448Z,19.26
2016-10-13T08:52:22.434Z,19.2
2016-10-13T08:53:35.497Z,19.19
2016-10-13T08:54:48.553Z,19.17
2016-10-13T08:56:02.080Z,19.24
2016-10-13T08:57:15.097Z,19.17
2016-10-13T08:58:28.143Z,19.23
2016-10-13T08:59:41.720Z,19.19
2016-10-13T09:00:53.670Z,19.22
2016-10-13T09:02:07.231Z,19.26
2016-10-13T09:03:20.352Z,19.2
2016-10-13T09:04:33.926Z,19.26
2016-10-13T09:05:47.475Z,19.26
2016-10-13T09:07:01.088Z,19.27
2016-10-13T09:08:14.653Z,19.23
2016-10-13T09:09:27.213Z,19.2
2016-10-13T09:10:40.729Z,19.35
2016-10-13T09:11:53.738Z,19.34
2016-10-13T09:13:06.743Z,19.32
2016-10-13T09:14:19.252Z,19.34
2016-10-13T09:15:31.294Z,19.32
2016-10-13T09:16:44.353Z,19.32
2016-10-13T09:17:57.384Z,19.41
2016-10-13T09:19:10.972Z,19.41
2016-10-13T09:20:24.456Z,19.45
2016-10-13T09:21:36.909Z,19.44
2016-10-13T09:22:50.423Z,19.49
2016-10-13T09:24:03.513Z,19.44
2016-10-13T09:25:16.559Z,19.52
2016-10-13T09:26:29.250Z,19.54
2016-10-13T09:27:42.264Z,19.57
2016-10-13T09:28:55.255Z,19.6
2016-10-13T09:30:08.227Z,19.68
2016-10-13T09:31:20.691Z,19.6
2016-10-13T09:32:33.715Z,19.62
2016-10-13T09:33:46.806Z,19.6
2016-10-13T09:35:00.413Z,19.62
2016-10-13T09:36:14.053Z,19.63
2016-10-13T09:37:27.637Z,19.59
2016-10-13T09:38:40.193Z,19.62
2016-10-13T09:39:52.741Z,19.59
2016-10-13T09:41:05.276Z,19.57
2016-10-13T09:42:17.290Z,19.6
2016-10-13T09:43:29.241Z,19.59
2016-10-13T09:44:42.855Z,19.64
2016-10-13T09:45:55.404Z,19.6
2016-10-13T09:47:07.974Z,19.6
2016-10-13T09:48:20.518Z,19.71
2016-10-13T09:49:34.120Z,19.74
2016-10-13T09:50:47.225Z,19.75
2016-10-13T09:51:59.744Z,19.63
2016-10-13T09:53:12.757Z,19.71
2016-10-13T09:54:25.746Z,19.77
2016-10-13T09:55:38.470Z,19.74
2016-10-13T09:56:50.449Z,19.74
2016-10-13T09:58:03.484Z,19.81
2016-10-13T09:59:17.095Z,19.82
2016-10-13T10:00:30.850Z,19.84
2016-10-13T10:01:43.912Z,19.79
2016-10-13T10:02:56.415Z,19.82
2016-10-13T10:04:09.476Z,19.82
2016-10-13T10:05:23.045Z,19.79
2016-10-13T10:06:36.588Z,19.92
2016-10-13T10:07:49.146Z,19.84
2016-10-13T10:09:02.169Z,19.92
2016-10-13T10:10:15.723Z,19.84
2016-10-13T10:11:28.738Z,19.87
2016-10-13T10:12:42.299Z,19.93
2016-10-13T10:13:55.872Z,19.92
2016-10-13T10:15:09.487Z,19.94
2016-10-13T10:16:22.012Z,19.99
2016-10-13T10:17:35.035Z,20.07
2016-10-13T10:18:48.077Z,20.02
2016-10-13T10:20:01.666Z,20.08
2016-10-13T10:21:14.797Z,20.05
2016-10-13T10:22:28.358Z,20.08
2016-10-13T10:23:41.383Z,20.07
2016-10-13T10:24:54.902Z,20.08
2016-10-13T10:26:06.902Z,20.15
2016-10-13T10:27:20.494Z,20.15
2016-10-13T10:28:34.269Z,20.22
2016-10-13T10:29:47.353Z,20.19
2016-10-13T10:31:00.380Z,20.23
2016-10-13T10:32:13.434Z,20.19
2016-10-13T10:33:25.984Z,20.26
2016-10-13T10:34:38.468Z,20.41
2016-10-13T10:35:51.077Z,20.41
2016-10-13T10:37:04.661Z,20.36
2016-10-13T10:38:16.613Z,20.48
2016-10-13T10:39:29.086Z,20.52
2016-10-13T10:40:42.115Z,20.56
2016-10-13T10:41:55.138Z,20.64
2016-10-13T10:43:08.722Z,20.73
2016-10-13T10:44:22.231Z,20.86
2016-10-13T10:45:35.766Z,20.85
2016-10-13T10:46:48.825Z,20.92
2016-10-13T10:48:02.391Z,20.88
2016-10-13T10:49:15.992Z,20.88
2016-10-13T10:50:29.016Z,20.85
2016-10-13T10:51:42.627Z,20.83
2016-10-13T10:52:55.698Z,20.83
2016-10-13T10:54:08.220Z,20.79
2016-10-13T10:55:21.727Z,20.77
2016-10-13T10:56:34.798Z,20.77
2016-10-13T10:57:47.829Z,20.82
2016-10-13T10:59:01.370Z,20.86
2016-10-13T11:00:14.505Z,20.86
2016-10-13T11:01:27.549Z,20.88
2016-10-13T11:02:40.624Z,20.93
2016-10-13T11:03:54.373Z,21.01
2016-10-13T11:05:06.907Z,21.05
2016-10-13T11:06:19.433Z,20.97
2016-10-13T11:07:32.011Z,21.01
2016-10-13T11:08:45.664Z,20.92
2016-10-13T11:09:57.792Z,21.05
2016-10-13T11:11:10.897Z,21
2016-10-13T11:12:23.520Z,21.03
2016-10-13T11:13:37.241Z,21
2016-10-13T11:14:50.903Z,21.1
2016-10-13T11:16:03.093Z,21.19
2016-10-13T11:17:16.229Z,21.13
2016-10-13T11:18:28.846Z,21.08
2016-10-13T11:19:40.906Z,21.05
2016-10-13T11:20:53.958Z,21.07
2016-10-13T11:22:06.679Z,20.98
2016-10-13T11:23:20.309Z,21
2016-10-13T11:24:33.321Z,21
2016-10-13T11:25:46.549Z,21.01
2016-10-13T11:26:59.766Z,20.9
2016-10-13T11:28:12.816Z,20.98
2016-10-13T11:29:26.448Z,21.01
2016-10-13T11:30:39.024Z,20.98
2016-10-13T11:31:52.676Z,21
2016-10-13T11:33:05.760Z,21.01
2016-10-13T11:34:19.395Z,20.95
2016-10-13T11:35:32.018Z,21.01
2016-10-13T11:36:45.160Z,20.93
2016-10-13T11:37:57.793Z,20.93
2016-10-13T11:39:10.871Z,21
2016-10-13T11:40:23.456Z,21.01
2016-10-13T11:41:36.066Z,21.04
2016-10-13T11:42:49.783Z,21.05
2016-10-13T11:44:02.943Z,21.05
2016-10-13T11:45:15.552Z,20.93
2016-10-13T11:46:28.141Z,21.07
2016-10-13T11:47:41.349Z,21.05
2016-10-13T11:48:53.919Z,21.14
2016-10-13T11:50:05.964Z,21.13
2016-10-13T11:51:19.045Z,21.11
2016-10-13T11:52:32.152Z,21.25
2016-10-13T11:53:45.815Z,21.28
2016-10-13T11:54:59.452Z,21.26
2016-10-13T11:56:12.030Z,21.34
2016-10-13T11:57:25.632Z,21.38
2016-10-13T11:58:38.273Z,21.43
2016-10-13T11:59:51.879Z,21.47
2016-10-13T12:01:04.479Z,21.6
2016-10-13T12:02:17.591Z,21.65
2016-10-13T12:03:29.688Z,21.65
2016-10-13T12:04:42.849Z,21.8
2016-10-13T12:05:54.868Z,21.88
2016-10-13T12:07:08.456Z,22.06
2016-10-13T12:08:20.992Z,22.11
2016-10-13T12:09:34.138Z,22.18
2016-10-13T12:10:47.894Z,22.4
2016-10-13T12:12:00.971Z,22.67
2016-10-13T12:13:14.647Z,22.99
2016-10-13T12:14:28.261Z,23.13
2016-10-13T12:15:41.384Z,23.28
2016-10-13T12:16:55.052Z,23.26
2016-10-13T12:18:08.696Z,23.31
2016-10-13T12:19:21.784Z,23.28
2016-10-13T12:20:35.466Z,23.26
2016-10-13T12:21:48.589Z,23.18
2016-10-13T12:23:01.185Z,23.29
2016-10-13T12:24:14.844Z,23.18
2016-10-13T12:25:27.951Z,23.28
2016-10-13T12:26:41.603Z,23.29
2016-10-13T12:27:55.222Z,23.25
2016-10-13T12:29:07.228Z,23.34
2016-10-13T12:30:20.867Z,23.51
2016-10-13T12:31:33.462Z,23.45
2016-10-13T12:32:47.108Z,23.55
2016-10-13T12:34:00.786Z,23.66
2016-10-13T12:35:13.970Z,23.84
2016-10-13T12:36:27.048Z,23.91
2016-10-13T12:37:39.651Z,24.06
2016-10-13T12:38:52.774Z,24.21
2016-10-13T12:40:05.395Z,24.38
2016-10-13T12:41:18.139Z,24.59
2016-10-13T12:42:31.792Z,24.89
2016-10-13T12:43:44.932Z,25.09
2016-10-13T12:44:58.607Z,25.06
2016-10-13T12:46:11.670Z,25.11
2016-10-13T12:47:24.832Z,25.22
2016-10-13T12:48:36.857Z,25.43
2016-10-13T12:49:49.990Z,25.55
2016-10-13T12:51:03.122Z,25.81
2016-10-13T12:52:16.719Z,25.96
2016-10-13T12:53:29.843Z,26.04
2016-10-13T12:54:42.861Z,26.11
2016-10-13T12:55:55.411Z,25.98
2016-10-13T12:57:09.070Z,26.07
2016-10-13T12:58:22.700Z,26.15
2016-10-13T12:59:35.837Z,26.31
2016-10-13T13:00:49.003Z,26.42
2016-10-13T13:02:02.108Z,26.53
2016-10-13T13:03:14.649Z,26.64
2016-10-13T13:04:27.666Z,26.67
2016-10-13T13:05:40.803Z,26.78
2016-10-13T13:06:54.467Z,26.97
2016-10-13T13:08:07.519Z,27.16
2016-10-13T13:09:20.619Z,27.23
2016-10-13T13:10:33.728Z,27.15
2016-10-13T13:11:47.351Z,27.23
2016-10-13T13:12:59.377Z,27.42
2016-10-13T13:14:12.616Z,27.61
2016-10-13T13:15:25.720Z,27.76
2016-10-13T13:16:38.799Z,27.83
2016-10-13T13:17:51.946Z,27.85
2016-10-13T13:19:04.602Z,27.64
2016-10-13T13:20:18.272Z,27.63
2016-10-13T13:21:31.419Z,27.66
2016-10-13T13:22:44.029Z,27.53
2016-10-13T13:23:57.152Z,27.58
2016-10-13T13:25:10.784Z,27.4
2016-10-13T13:26:23.912Z,27.4
2016-10-13T13:27:37.118Z,27.17
2016-10-13T13:28:50.253Z,27.16
2016-10-13T13:30:03.354Z,27.03
2016-10-13T13:31:16.411Z,26.95
2016-10-13T13:32:28.443Z,26.82
2016-10-13T13:33:42.099Z,26.95
2016-10-13T13:34:55.229Z,26.93
2016-10-13T13:36:08.346Z,26.82
2016-10-13T13:37:21.989Z,26.89
2016-10-13T13:38:34.603Z,26.8
2016-10-13T13:39:47.746Z,26.78
2016-10-13T13:41:00.823Z,26.6
2016-10-13T13:42:14.517Z,26.49
2016-10-13T13:43:27.046Z,26.53
2016-10-13T13:44:39.701Z,26.56
2016-10-13T13:45:52.835Z,26.56
2016-10-13T13:47:05.960Z,26.56
2016-10-13T13:48:19.044Z,26.58
2016-10-13T13:49:32.707Z,26.51
2016-10-13T13:50:46.543Z,26.53
2016-10-13T13:52:00.156Z,26.57
2016-10-13T13:53:13.898Z,26.61
2016-10-13T13:54:26.452Z,26.61
2016-10-13T13:55:39.041Z,26.57
2016-10-13T13:56:52.771Z,26.56
2016-10-13T13:58:05.356Z,26.42
2016-10-13T13:59:19.009Z,26.56
2016-10-13T14:00:32.134Z,26.53
2016-10-13T14:01:45.782Z,26.68
2016-10-13T14:02:59.420Z,26.75
2016-10-13T14:04:12.574Z,26.79
2016-10-13T14:05:26.255Z,26.83
2016-10-13T14:06:38.875Z,26.85
2016-10-13T14:07:51.454Z,27.01
2016-10-13T14:09:05.057Z,27.15
2016-10-13T14:10:18.193Z,27.1
2016-10-13T14:11:31.326Z,27.16
2016-10-13T14:12:44.415Z,27.27
2016-10-13T14:13:57.540Z,27.27
2016-10-13T14:15:10.081Z,27.22
2016-10-13T14:16:22.156Z,27.19
2016-10-13T14:17:35.522Z,27.27
2016-10-13T14:18:48.609Z,27.26
2016-10-13T14:20:02.391Z,27.32
2016-10-13T14:21:15.543Z,27.32
2016-10-13T14:22:29.172Z,27.25
2016-10-13T14:23:42.861Z,27.32
2016-10-13T14:24:56.011Z,27.42
2016-10-13T14:26:09.094Z,27.44
2016-10-13T14:27:22.723Z,27.52
2016-10-13T14:28:35.867Z,27.47
2016-10-13T14:29:49.001Z,27.47
2016-10-13T14:31:02.167Z,27.53
2016-10-13T14:32:15.306Z,27.5
2016-10-13T14:33:28.518Z,27.57
2016-10-13T14:34:40.098Z,27.75
2016-10-13T14:35:53.133Z,27.78
2016-10-13T14:37:06.200Z,27.88
2016-10-13T14:38:18.278Z,28.01
2016-10-13T14:39:30.867Z,28.03
2016-10-13T14:40:44.494Z,28.1
2016-10-13T14:41:57.552Z,28.09
2016-10-13T14:43:11.226Z,28.2
2016-10-13T14:44:24.334Z,28.15
2016-10-13T14:45:37.436Z,28.22
2016-10-13T14:46:50.088Z,28.16
2016-10-13T14:48:02.692Z,28.19
2016-10-13T14:49:15.814Z,28.27
2016-10-13T14:50:27.860Z,28.3
2016-10-13T14:51:40.945Z,28.37
2016-10-13T14:52:54.095Z,28.47
2016-10-13T14:54:07.259Z,28.49
2016-10-13T14:55:20.350Z,28.56
2016-10-13T14:56:33.437Z,28.62
2016-10-13T14:57:46.602Z,28.71
2016-10-13T14:58:59.207Z,28.72
2016-10-13T15:00:11.829Z,28.69
2016-10-13T15:01:25.008Z,28.66
2016-10-13T15:02:38.101Z,28.77
2016-10-13T15:03:51.184Z,28.66
2016-10-13T15:05:04.345Z,28.71
2016-10-13T15:06:16.946Z,28.69
2016-10-13T15:07:29.536Z,28.64
2016-10-13T15:08:42.579Z,28.57
2016-10-13T15:09:55.738Z,28.5
2016-10-13T15:11:09.409Z,28.5
2016-10-13T15:12:22.561Z,28.47
2016-10-13T15:13:35.692Z,28.4
2016-10-13T15:14:49.533Z,28.37
2016-10-13T15:16:02.625Z,28.5
2016-10-13T15:17:15.198Z,28.56
2016-10-13T15:18:27.841Z,28.66
2016-10-13T15:19:41.588Z,28.77
2016-10-13T15:20:54.731Z,28.74
2016-10-13T15:22:08.549Z,28.77
2016-10-13T15:23:21.666Z,28.84
2016-10-13T15:24:35.004Z,28.81
2016-10-13T15:25:48.621Z,28.84
2016-10-13T15:27:01.193Z,28.91
2016-10-13T15:28:14.323Z,28.8
2016-10-13T15:29:27.922Z,28.87
2016-10-13T15:30:41.713Z,28.84
2016-10-13T15:31:55.456Z,28.84
2016-10-13T15:33:08.614Z,28.87
2016-10-13T15:34:21.826Z,28.75
2016-10-13T15:35:34.962Z,28.86
2016-10-13T15:36:48.598Z,28.87
2016-10-13T15:38:01.146Z,28.83
2016-10-13T15:39:14.270Z,28.87
2016-10-13T15:40:27.895Z,28.89
2016-10-13T15:41:41.628Z,28.77
2016-10-13T15:42:54.230Z,28.66
2016-10-13T15:44:07.965Z,28.75
2016-10-13T15:45:20.623Z,28.75
2016-10-13T15:46:34.253Z,28.75